sensor_id;sensor_type;location;lat;lon;timestamp;temperature;humidity
975;DHT22;6115;49.296;10.602;2023-07-20T00:03:13;19.20;65.80
975;DHT22;6115;49.296;10.602;2023-07-20T00:08:17;19.20;65.40
975;DHT22;6115;49.296;10.602;2023-07-20T00:13:18;19.20;65.40
975;DHT22;6115;49.296;10.602;2023-07-20T00:18:21;19.20;65.40
975;DHT22;6115;49.296;10.602;2023-07-20T00:23:21;19.20;65.40
975;DHT22;6115;49.296;10.602;2023-07-20T00:28:22;19.20;65.50
975;DHT22;6115;49.296;10.602;2023-07-20T00:33:23;19.20;65.30
975;DHT22;6115;49.296;10.602;2023-07-20T00:38:24;19.20;65.10
975;DHT22;6115;49.296;10.602;2023-07-20T00:43:24;19.20;63.90
975;DHT22;6115;49.296;10.602;2023-07-20T00:48:25;19.20;63.30
975;DHT22;6115;49.296;10.602;2023-07-20T00:53:26;19.10;63.20
975;DHT22;6115;49.296;10.602;2023-07-20T00:58:27;19.20;63.30
975;DHT22;6115;49.296;10.602;2023-07-20T01:03:28;19.10;63.20
975;DHT22;6115;49.296;10.602;2023-07-20T01:08:32;19.00;63.80
975;DHT22;6115;49.296;10.602;2023-07-20T01:13:34;19.10;63.20
975;DHT22;6115;49.296;10.602;2023-07-20T01:18:35;19.10;63.20
975;DHT22;6115;49.296;10.602;2023-07-20T01:34:42;19.10;63.30
975;DHT22;6115;49.296;10.602;2023-07-20T01:39:44;19.00;63.50
975;DHT22;6115;49.296;10.602;2023-07-20T01:44:45;19.00;63.00
975;DHT22;6115;49.296;10.602;2023-07-20T01:49:45;18.90;63.40
975;DHT22;6115;49.296;10.602;2023-07-20T01:54:46;18.90;63.40
975;DHT22;6115;49.296;10.602;2023-07-20T01:59:49;18.80;63.80
975;DHT22;6115;49.296;10.602;2023-07-20T02:04:50;18.80;63.90
975;DHT22;6115;49.296;10.602;2023-07-20T02:09:50;18.70;64.30
975;DHT22;6115;49.296;10.602;2023-07-20T02:14:51;18.60;64.70
975;DHT22;6115;49.296;10.602;2023-07-20T02:19:56;18.50;64.90
975;DHT22;6115;49.296;10.602;2023-07-20T02:24:57;18.50;65.20
975;DHT22;6115;49.296;10.602;2023-07-20T02:29:58;18.40;64.70
975;DHT22;6115;49.296;10.602;2023-07-20T02:34:59;18.30;65.00
975;DHT22;6115;49.296;10.602;2023-07-20T02:39:59;18.30;64.90
975;DHT22;6115;49.296;10.602;2023-07-20T02:45:02;18.20;65.30
975;DHT22;6115;49.296;10.602;2023-07-20T02:50:06;18.10;65.40
975;DHT22;6115;49.296;10.602;2023-07-20T02:55:07;18.20;64.80
975;DHT22;6115;49.296;10.602;2023-07-20T03:00:08;18.20;64.50
975;DHT22;6115;49.296;10.602;2023-07-20T03:05:09;18.20;64.50
975;DHT22;6115;49.296;10.602;2023-07-20T03:10:10;18.10;64.40
975;DHT22;6115;49.296;10.602;2023-07-20T03:15:11;18.00;64.20
975;DHT22;6115;49.296;10.602;2023-07-20T03:20:11;18.00;64.20
975;DHT22;6115;49.296;10.602;2023-07-20T03:25:13;18.00;64.30
975;DHT22;6115;49.296;10.602;2023-07-20T03:30:14;18.10;64.20
975;DHT22;6115;49.296;10.602;2023-07-20T03:35:14;18.10;63.80
975;DHT22;6115;49.296;10.602;2023-07-20T03:40:16;18.10;63.50
975;DHT22;6115;49.296;10.602;2023-07-20T03:45:16;18.10;63.40
975;DHT22;6115;49.296;10.602;2023-07-20T03:50:17;18.00;63.20
975;DHT22;6115;49.296;10.602;2023-07-20T03:55:17;17.90;63.20
975;DHT22;6115;49.296;10.602;2023-07-20T04:00:18;18.00;63.20
975;DHT22;6115;49.296;10.602;2023-07-20T04:05:19;18.00;62.90
975;DHT22;6115;49.296;10.602;2023-07-20T04:10:19;17.90;62.70
975;DHT22;6115;49.296;10.602;2023-07-20T04:15:20;17.90;62.90
975;DHT22;6115;49.296;10.602;2023-07-20T04:20:20;18.00;62.60
975;DHT22;6115;49.296;10.602;2023-07-20T04:25:21;18.00;62.20
975;DHT22;6115;49.296;10.602;2023-07-20T04:30:22;17.90;62.20
975;DHT22;6115;49.296;10.602;2023-07-20T04:35:46;17.90;62.00
975;DHT22;6115;49.296;10.602;2023-07-20T04:40:48;18.00;62.30
975;DHT22;6115;49.296;10.602;2023-07-20T04:45:49;17.90;61.60
975;DHT22;6115;49.296;10.602;2023-07-20T04:50:50;17.80;61.40
975;DHT22;6115;49.296;10.602;2023-07-20T04:55:51;17.80;61.90
975;DHT22;6115;49.296;10.602;2023-07-20T05:00:52;17.90;61.20
975;DHT22;6115;49.296;10.602;2023-07-20T05:05:53;18.00;61.00
975;DHT22;6115;49.296;10.602;2023-07-20T05:10:53;17.90;61.10
975;DHT22;6115;49.296;10.602;2023-07-20T05:15:54;17.90;60.70
975;DHT22;6115;49.296;10.602;2023-07-20T05:20:55;18.00;60.60
975;DHT22;6115;49.296;10.602;2023-07-20T05:25:56;18.10;60.00
975;DHT22;6115;49.296;10.602;2023-07-20T05:30:57;18.10;59.10
975;DHT22;6115;49.296;10.602;2023-07-20T05:35:59;18.20;59.10
975;DHT22;6115;49.296;10.602;2023-07-20T05:41:00;18.20;58.10
975;DHT22;6115;49.296;10.602;2023-07-20T05:46:02;18.20;57.50
975;DHT22;6115;49.296;10.602;2023-07-20T05:51:02;18.20;57.50
975;DHT22;6115;49.296;10.602;2023-07-20T05:56:03;18.10;57.40
975;DHT22;6115;49.296;10.602;2023-07-20T06:01:04;18.00;58.00
975;DHT22;6115;49.296;10.602;2023-07-20T06:06:06;18.20;57.50
975;DHT22;6115;49.296;10.602;2023-07-20T06:11:10;18.20;57.50
975;DHT22;6115;49.296;10.602;2023-07-20T06:16:10;18.20;57.10
975;DHT22;6115;49.296;10.602;2023-07-20T06:21:11;18.20;56.00
975;DHT22;6115;49.296;10.602;2023-07-20T06:26:11;18.20;55.90
975;DHT22;6115;49.296;10.602;2023-07-20T06:31:12;18.30;55.10
975;DHT22;6115;49.296;10.602;2023-07-20T06:36:12;18.40;54.80
975;DHT22;6115;49.296;10.602;2023-07-20T06:41:13;18.40;54.90
975;DHT22;6115;49.296;10.602;2023-07-20T06:46:13;18.60;54.30
975;DHT22;6115;49.296;10.602;2023-07-20T06:51:14;18.70;53.70
975;DHT22;6115;49.296;10.602;2023-07-20T06:56:14;18.70;53.40
975;DHT22;6115;49.296;10.602;2023-07-20T07:01:15;18.90;53.60
975;DHT22;6115;49.296;10.602;2023-07-20T07:06:16;19.10;52.90
975;DHT22;6115;49.296;10.602;2023-07-20T07:11:16;19.30;52.60
975;DHT22;6115;49.296;10.602;2023-07-20T07:16:17;19.30;51.90
975;DHT22;6115;49.296;10.602;2023-07-20T07:21:19;19.30;51.40
975;DHT22;6115;49.296;10.602;2023-07-20T07:26:20;19.40;51.80
975;DHT22;6115;49.296;10.602;2023-07-20T07:31:21;19.70;49.80
975;DHT22;6115;49.296;10.602;2023-07-20T07:36:23;19.90;49.20
975;DHT22;6115;49.296;10.602;2023-07-20T07:41:25;19.90;48.60
975;DHT22;6115;49.296;10.602;2023-07-20T07:46:26;20.10;48.20
975;DHT22;6115;49.296;10.602;2023-07-20T07:51:26;20.10;48.60
975;DHT22;6115;49.296;10.602;2023-07-20T07:56:30;20.40;48.10
975;DHT22;6115;49.296;10.602;2023-07-20T08:01:30;20.50;47.60
975;DHT22;6115;49.296;10.602;2023-07-20T08:06:31;20.40;46.70
975;DHT22;6115;49.296;10.602;2023-07-20T08:11:32;20.40;45.70
975;DHT22;6115;49.296;10.602;2023-07-20T08:16:34;20.60;45.90
975;DHT22;6115;49.296;10.602;2023-07-20T08:21:34;20.80;45.20
975;DHT22;6115;49.296;10.602;2023-07-20T08:26:38;20.90;45.80
975;DHT22;6115;49.296;10.602;2023-07-20T08:31:38;20.90;45.10
975;DHT22;6115;49.296;10.602;2023-07-20T08:36:39;21.00;43.90
975;DHT22;6115;49.296;10.602;2023-07-20T08:41:42;20.90;44.70
975;DHT22;6115;49.296;10.602;2023-07-20T08:46:43;21.00;43.30
975;DHT22;6115;49.296;10.602;2023-07-20T08:51:46;21.10;42.60
975;DHT22;6115;49.296;10.602;2023-07-20T08:56:47;21.30;43.10
975;DHT22;6115;49.296;10.602;2023-07-20T09:01:48;21.50;42.00
975;DHT22;6115;49.296;10.602;2023-07-20T09:06:50;21.40;41.90
975;DHT22;6115;49.296;10.602;2023-07-20T09:11:50;21.40;41.90
975;DHT22;6115;49.296;10.602;2023-07-20T09:16:54;21.60;40.90
975;DHT22;6115;49.296;10.602;2023-07-20T09:21:55;22.00;39.10
975;DHT22;6115;49.296;10.602;2023-07-20T09:26:56;22.30;39.20
975;DHT22;6115;49.296;10.602;2023-07-20T09:32:03;22.70;38.40
975;DHT22;6115;49.296;10.602;2023-07-20T09:37:04;23.30;38.00
975;DHT22;6115;49.296;10.602;2023-07-20T09:42:05;23.50;37.30
975;DHT22;6115;49.296;10.602;2023-07-20T09:47:06;22.90;35.20
975;DHT22;6115;49.296;10.602;2023-07-20T09:52:11;22.90;36.40
975;DHT22;6115;49.296;10.602;2023-07-20T09:57:12;23.40;36.30
975;DHT22;6115;49.296;10.602;2023-07-20T10:02:23;23.80;34.30
975;DHT22;6115;49.296;10.602;2023-07-20T10:07:27;23.50;34.30
975;DHT22;6115;49.296;10.602;2023-07-20T10:12:29;23.00;35.70
975;DHT22;6115;49.296;10.602;2023-07-20T10:17:31;23.20;34.10
975;DHT22;6115;49.296;10.602;2023-07-20T10:22:35;23.50;34.00
975;DHT22;6115;49.296;10.602;2023-07-20T10:27:36;23.70;32.90
975;DHT22;6115;49.296;10.602;2023-07-20T10:32:40;24.20;31.40
975;DHT22;6115;49.296;10.602;2023-07-20T10:37:52;24.50;29.40
975;DHT22;6115;49.296;10.602;2023-07-20T10:43:03;24.50;29.90
975;DHT22;6115;49.296;10.602;2023-07-20T10:48:05;24.90;30.30
975;DHT22;6115;49.296;10.602;2023-07-20T10:53:13;25.20;28.00
975;DHT22;6115;49.296;10.602;2023-07-20T10:58:14;24.90;28.10
975;DHT22;6115;49.296;10.602;2023-07-20T11:03:27;25.10;28.20
975;DHT22;6115;49.296;10.602;2023-07-20T11:08:40;25.10;28.80
975;DHT22;6115;49.296;10.602;2023-07-20T11:13:57;25.30;29.20
975;DHT22;6115;49.296;10.602;2023-07-20T11:18:58;25.40;28.30
975;DHT22;6115;49.296;10.602;2023-07-20T11:24:03;25.40;28.10
975;DHT22;6115;49.296;10.602;2023-07-20T11:29:03;25.60;27.70
975;DHT22;6115;49.296;10.602;2023-07-20T11:34:04;25.60;28.00
975;DHT22;6115;49.296;10.602;2023-07-20T11:39:06;25.80;27.90
975;DHT22;6115;49.296;10.602;2023-07-20T11:44:09;25.70;27.80
975;DHT22;6115;49.296;10.602;2023-07-20T11:49:13;25.80;28.20
975;DHT22;6115;49.296;10.602;2023-07-20T11:54:14;26.10;28.00
975;DHT22;6115;49.296;10.602;2023-07-20T11:59:14;26.10;27.70
975;DHT22;6115;49.296;10.602;2023-07-20T12:04:15;26.30;27.10
975;DHT22;6115;49.296;10.602;2023-07-20T12:09:17;25.80;26.90
975;DHT22;6115;49.296;10.602;2023-07-20T12:14:17;25.60;27.20
975;DHT22;6115;49.296;10.602;2023-07-20T12:19:18;25.40;26.70
975;DHT22;6115;49.296;10.602;2023-07-20T12:24:18;25.30;26.70
975;DHT22;6115;49.296;10.602;2023-07-20T12:29:19;25.70;26.90
975;DHT22;6115;49.296;10.602;2023-07-20T12:34:19;26.10;26.10
975;DHT22;6115;49.296;10.602;2023-07-20T12:39:20;26.40;25.00
975;DHT22;6115;49.296;10.602;2023-07-20T12:44:20;26.60;27.30
975;DHT22;6115;49.296;10.602;2023-07-20T12:49:21;26.50;26.30
975;DHT22;6115;49.296;10.602;2023-07-20T12:54:22;26.30;25.30
975;DHT22;6115;49.296;10.602;2023-07-20T12:59:22;26.40;25.70
975;DHT22;6115;49.296;10.602;2023-07-20T13:04:23;26.60;24.50
975;DHT22;6115;49.296;10.602;2023-07-20T13:09:24;26.70;23.10
975;DHT22;6115;49.296;10.602;2023-07-20T13:14:24;26.70;22.90
975;DHT22;6115;49.296;10.602;2023-07-20T13:19:25;26.60;22.80
975;DHT22;6115;49.296;10.602;2023-07-20T13:24:25;26.60;23.20
975;DHT22;6115;49.296;10.602;2023-07-20T13:29:26;27.00;23.00
975;DHT22;6115;49.296;10.602;2023-07-20T13:34:26;27.00;22.40
975;DHT22;6115;49.296;10.602;2023-07-20T13:39:27;27.30;22.80
975;DHT22;6115;49.296;10.602;2023-07-20T13:44:28;27.70;21.60
975;DHT22;6115;49.296;10.602;2023-07-20T13:49:28;27.90;21.00
975;DHT22;6115;49.296;10.602;2023-07-20T13:54:29;27.90;21.10
975;DHT22;6115;49.296;10.602;2023-07-20T13:59:30;27.80;21.40
975;DHT22;6115;49.296;10.602;2023-07-20T14:04:30;28.00;22.00
975;DHT22;6115;49.296;10.602;2023-07-20T14:09:31;27.70;22.30
975;DHT22;6115;49.296;10.602;2023-07-20T14:14:31;27.60;22.40
975;DHT22;6115;49.296;10.602;2023-07-20T14:19:32;27.40;23.30
975;DHT22;6115;49.296;10.602;2023-07-20T14:24:33;27.30;23.80
975;DHT22;6115;49.296;10.602;2023-07-20T14:29:33;27.50;23.10
975;DHT22;6115;49.296;10.602;2023-07-20T14:34:36;27.80;23.50
975;DHT22;6115;49.296;10.602;2023-07-20T14:39:37;27.90;23.30
975;DHT22;6115;49.296;10.602;2023-07-20T14:44:37;28.10;23.20
975;DHT22;6115;49.296;10.602;2023-07-20T14:49:38;28.00;22.80
975;DHT22;6115;49.296;10.602;2023-07-20T14:54:38;27.80;22.90
975;DHT22;6115;49.296;10.602;2023-07-20T14:59:39;27.30;23.50
975;DHT22;6115;49.296;10.602;2023-07-20T15:04:48;27.30;24.00
975;DHT22;6115;49.296;10.602;2023-07-20T15:09:49;27.60;24.50
975;DHT22;6115;49.296;10.602;2023-07-20T15:15:09;27.50;24.00
975;DHT22;6115;49.296;10.602;2023-07-20T15:20:11;27.30;24.10
975;DHT22;6115;49.296;10.602;2023-07-20T15:25:12;27.30;24.80
975;DHT22;6115;49.296;10.602;2023-07-20T15:30:13;27.50;24.40
975;DHT22;6115;49.296;10.602;2023-07-20T15:35:15;27.40;24.50
975;DHT22;6115;49.296;10.602;2023-07-20T15:40:15;27.00;24.70
975;DHT22;6115;49.296;10.602;2023-07-20T15:45:16;26.70;24.80
975;DHT22;6115;49.296;10.602;2023-07-20T15:50:17;27.00;25.10
975;DHT22;6115;49.296;10.602;2023-07-20T15:55:17;27.50;24.80
975;DHT22;6115;49.296;10.602;2023-07-20T16:00:18;27.70;23.30
975;DHT22;6115;49.296;10.602;2023-07-20T16:05:19;27.70;24.00
975;DHT22;6115;49.296;10.602;2023-07-20T16:10:19;27.50;22.80
975;DHT22;6115;49.296;10.602;2023-07-20T16:15:20;27.50;23.30
975;DHT22;6115;49.296;10.602;2023-07-20T16:20:21;27.20;23.70
975;DHT22;6115;49.296;10.602;2023-07-20T16:25:22;26.90;24.10
975;DHT22;6115;49.296;10.602;2023-07-20T16:30:22;26.80;24.50
975;DHT22;6115;49.296;10.602;2023-07-20T16:35:23;26.90;24.30
975;DHT22;6115;49.296;10.602;2023-07-20T16:40:24;26.80;23.50
975;DHT22;6115;49.296;10.602;2023-07-20T16:45:25;26.80;23.60
975;DHT22;6115;49.296;10.602;2023-07-20T16:50:25;26.50;23.80
975;DHT22;6115;49.296;10.602;2023-07-20T16:55:26;26.30;23.80
975;DHT22;6115;49.296;10.602;2023-07-20T17:00:27;26.20;23.40
975;DHT22;6115;49.296;10.602;2023-07-20T17:05:27;26.10;24.50
975;DHT22;6115;49.296;10.602;2023-07-20T17:10:27;25.80;24.50
975;DHT22;6115;49.296;10.602;2023-07-20T17:15:30;25.70;25.40
975;DHT22;6115;49.296;10.602;2023-07-20T17:20:31;25.60;25.70
975;DHT22;6115;49.296;10.602;2023-07-20T17:25:34;25.50;25.70
975;DHT22;6115;49.296;10.602;2023-07-20T17:30:34;25.40;26.70
975;DHT22;6115;49.296;10.602;2023-07-20T17:35:35;25.20;26.60
975;DHT22;6115;49.296;10.602;2023-07-20T17:40:36;25.00;26.50
975;DHT22;6115;49.296;10.602;2023-07-20T17:45:36;25.00;26.50
975;DHT22;6115;49.296;10.602;2023-07-20T17:50:37;24.90;26.40
975;DHT22;6115;49.296;10.602;2023-07-20T17:55:38;24.90;26.80
975;DHT22;6115;49.296;10.602;2023-07-20T18:00:38;25.00;26.50
975;DHT22;6115;49.296;10.602;2023-07-20T18:05:39;25.00;27.30
975;DHT22;6115;49.296;10.602;2023-07-20T18:10:39;25.00;27.20
975;DHT22;6115;49.296;10.602;2023-07-20T18:15:40;25.00;27.70
975;DHT22;6115;49.296;10.602;2023-07-20T18:20:40;24.90;27.50
975;DHT22;6115;49.296;10.602;2023-07-20T18:25:44;24.80;27.70
975;DHT22;6115;49.296;10.602;2023-07-20T18:30:45;24.60;27.90
975;DHT22;6115;49.296;10.602;2023-07-20T18:35:46;24.50;28.30
975;DHT22;6115;49.296;10.602;2023-07-20T18:40:46;24.30;28.40
975;DHT22;6115;49.296;10.602;2023-07-20T18:45:47;24.20;28.80
975;DHT22;6115;49.296;10.602;2023-07-20T18:50:48;24.10;29.20
975;DHT22;6115;49.296;10.602;2023-07-20T18:55:49;24.00;29.40
975;DHT22;6115;49.296;10.602;2023-07-20T19:00:49;23.80;29.60
975;DHT22;6115;49.296;10.602;2023-07-20T19:05:50;23.70;29.80
975;DHT22;6115;49.296;10.602;2023-07-20T19:11:02;23.60;30.00
975;DHT22;6115;49.296;10.602;2023-07-20T19:16:04;23.40;30.30
975;DHT22;6115;49.296;10.602;2023-07-20T19:21:05;23.40;30.60
975;DHT22;6115;49.296;10.602;2023-07-20T19:26:06;23.30;30.90
975;DHT22;6115;49.296;10.602;2023-07-20T19:31:07;23.20;30.90
975;DHT22;6115;49.296;10.602;2023-07-20T19:36:08;23.20;31.30
975;DHT22;6115;49.296;10.602;2023-07-20T19:41:09;23.20;31.80
975;DHT22;6115;49.296;10.602;2023-07-20T19:46:09;23.20;31.60
975;DHT22;6115;49.296;10.602;2023-07-20T19:51:10;23.10;31.80
975;DHT22;6115;49.296;10.602;2023-07-20T19:56:11;23.00;32.20
975;DHT22;6115;49.296;10.602;2023-07-20T20:01:12;22.90;32.10
975;DHT22;6115;49.296;10.602;2023-07-20T20:06:12;22.90;32.40
975;DHT22;6115;49.296;10.602;2023-07-20T20:11:13;22.90;33.10
975;DHT22;6115;49.296;10.602;2023-07-20T20:16:14;22.80;33.40
975;DHT22;6115;49.296;10.602;2023-07-20T20:21:15;22.70;33.30
975;DHT22;6115;49.296;10.602;2023-07-20T20:26:16;22.50;33.20
975;DHT22;6115;49.296;10.602;2023-07-20T20:31:18;22.50;33.20
975;DHT22;6115;49.296;10.602;2023-07-20T20:36:18;22.40;33.10
975;DHT22;6115;49.296;10.602;2023-07-20T20:41:19;22.40;33.70
975;DHT22;6115;49.296;10.602;2023-07-20T20:46:19;22.30;35.00
975;DHT22;6115;49.296;10.602;2023-07-20T20:51:20;22.10;36.00
975;DHT22;6115;49.296;10.602;2023-07-20T20:56:21;22.00;36.30
975;DHT22;6115;49.296;10.602;2023-07-20T21:01:21;21.90;36.20
975;DHT22;6115;49.296;10.602;2023-07-20T21:06:22;21.80;36.90
975;DHT22;6115;49.296;10.602;2023-07-20T21:11:23;21.60;37.00
975;DHT22;6115;49.296;10.602;2023-07-20T21:16:23;21.60;37.30
975;DHT22;6115;49.296;10.602;2023-07-20T21:21:24;21.50;37.50
975;DHT22;6115;49.296;10.602;2023-07-20T21:26:24;21.50;37.90
975;DHT22;6115;49.296;10.602;2023-07-20T21:31:25;21.30;38.50
975;DHT22;6115;49.296;10.602;2023-07-20T21:36:26;21.10;38.90
975;DHT22;6115;49.296;10.602;2023-07-20T21:41:26;20.90;39.50
975;DHT22;6115;49.296;10.602;2023-07-20T21:46:27;20.70;39.90
975;DHT22;6115;49.296;10.602;2023-07-20T21:51:27;20.60;41.20
975;DHT22;6115;49.296;10.602;2023-07-20T21:56:28;20.50;41.10
975;DHT22;6115;49.296;10.602;2023-07-20T22:01:28;20.50;41.10
975;DHT22;6115;49.296;10.602;2023-07-20T22:06:30;20.40;41.10
975;DHT22;6115;49.296;10.602;2023-07-20T22:11:30;20.40;41.90
975;DHT22;6115;49.296;10.602;2023-07-20T22:16:31;20.30;41.90
975;DHT22;6115;49.296;10.602;2023-07-20T22:21:32;20.30;42.40
975;DHT22;6115;49.296;10.602;2023-07-20T22:26:33;20.10;42.30
975;DHT22;6115;49.296;10.602;2023-07-20T22:31:34;20.10;42.30
975;DHT22;6115;49.296;10.602;2023-07-20T22:36:34;19.90;42.60
975;DHT22;6115;49.296;10.602;2023-07-20T22:41:35;19.90;43.40
975;DHT22;6115;49.296;10.602;2023-07-20T22:46:35;19.90;43.30
975;DHT22;6115;49.296;10.602;2023-07-20T22:51:36;19.80;43.80
975;DHT22;6115;49.296;10.602;2023-07-20T22:56:37;19.70;43.80
975;DHT22;6115;49.296;10.602;2023-07-20T23:01:37;19.70;43.60
975;DHT22;6115;49.296;10.602;2023-07-20T23:06:38;19.60;43.90
975;DHT22;6115;49.296;10.602;2023-07-20T23:11:38;19.40;44.30
975;DHT22;6115;49.296;10.602;2023-07-20T23:16:39;19.40;44.50
975;DHT22;6115;49.296;10.602;2023-07-20T23:21:39;19.20;44.70
975;DHT22;6115;49.296;10.602;2023-07-20T23:26:40;19.10;45.00
975;DHT22;6115;49.296;10.602;2023-07-20T23:31:41;18.90;45.40
975;DHT22;6115;49.296;10.602;2023-07-20T23:36:42;18.90;45.90
975;DHT22;6115;49.296;10.602;2023-07-20T23:41:42;18.80;46.30
975;DHT22;6115;49.296;10.602;2023-07-20T23:46:43;18.80;46.70
975;DHT22;6115;49.296;10.602;2023-07-20T23:51:43;18.70;47.10
975;DHT22;6115;49.296;10.602;2023-07-20T23:56:44;18.60;47.10
